sensor_id;sensor_type;location;lat;lon;timestamp;P1;durP1;ratioP1;P2;durP2;ratioP2
19396;SDS011;9834;48.076;11.878;2024-03-07T00:00:55;9.67;;;5.70;;
19396;SDS011;9834;48.076;11.878;2024-03-07T00:03:28;10.43;;;5.07;;
19396;SDS011;9834;48.076;11.878;2024-03-07T00:05:57;6.23;;;4.57;;
19396;SDS011;9834;48.076;11.878;2024-03-07T00:08:28;7.63;;;4.77;;
19396;SDS011;9834;48.076;11.878;2024-03-07T00:10:59;9.33;;;5.60;;
19396;SDS011;9834;48.076;11.878;2024-03-07T00:13:26;8.83;;;4.83;;
19396;SDS011;9834;48.076;11.878;2024-03-07T00:15:55;8.20;;;5.30;;
19396;SDS011;9834;48.076;11.878;2024-03-07T00:18:23;8.33;;;5.20;;
19396;SDS011;9834;48.076;11.878;2024-03-07T00:20:51;11.77;;;5.87;;
19396;SDS011;9834;48.076;11.878;2024-03-07T00:23:20;9.57;;;5.50;;
19396;SDS011;9834;48.076;11.878;2024-03-07T00:25:52;6.87;;;4.27;;
19396;SDS011;9834;48.076;11.878;2024-03-07T00:28:19;6.80;;;4.43;;
19396;SDS011;9834;48.076;11.878;2024-03-07T00:30:46;8.07;;;5.20;;
19396;SDS011;9834;48.076;11.878;2024-03-07T00:33:18;8.77;;;5.03;;
19396;SDS011;9834;48.076;11.878;2024-03-07T00:35:47;8.73;;;5.23;;
19396;SDS011;9834;48.076;11.878;2024-03-07T00:38:16;8.83;;;5.13;;
19396;SDS011;9834;48.076;11.878;2024-03-07T00:40:44;9.70;;;5.57;;
19396;SDS011;9834;48.076;11.878;2024-03-07T00:43:12;7.70;;;4.90;;
19396;SDS011;9834;48.076;11.878;2024-03-07T00:45:40;9.57;;;5.20;;
19396;SDS011;9834;48.076;11.878;2024-03-07T00:48:15;6.87;;;5.03;;
19396;SDS011;9834;48.076;11.878;2024-03-07T00:50:42;8.10;;;5.13;;
19396;SDS011;9834;48.076;11.878;2024-03-07T00:53:14;8.60;;;4.70;;
19396;SDS011;9834;48.076;11.878;2024-03-07T00:55:46;9.30;;;5.03;;
19396;SDS011;9834;48.076;11.878;2024-03-07T00:58:14;7.23;;;4.43;;
19396;SDS011;9834;48.076;11.878;2024-03-07T01:00:42;9.97;;;5.37;;
19396;SDS011;9834;48.076;11.878;2024-03-07T01:03:11;8.40;;;5.07;;
19396;SDS011;9834;48.076;11.878;2024-03-07T01:05:39;8.43;;;5.30;;
19396;SDS011;9834;48.076;11.878;2024-03-07T01:08:07;8.47;;;5.23;;
19396;SDS011;9834;48.076;11.878;2024-03-07T01:10:37;6.97;;;4.57;;
19396;SDS011;9834;48.076;11.878;2024-03-07T01:13:05;7.87;;;4.73;;
19396;SDS011;9834;48.076;11.878;2024-03-07T01:15:34;6.23;;;4.23;;
19396;SDS011;9834;48.076;11.878;2024-03-07T01:18:01;7.93;;;4.87;;
19396;SDS011;9834;48.076;11.878;2024-03-07T01:20:32;9.30;;;4.97;;
19396;SDS011;9834;48.076;11.878;2024-03-07T01:23:04;6.90;;;4.73;;
19396;SDS011;9834;48.076;11.878;2024-03-07T01:25:30;9.73;;;4.97;;
19396;SDS011;9834;48.076;11.878;2024-03-07T01:28:00;11.30;;;5.97;;
19396;SDS011;9834;48.076;11.878;2024-03-07T01:30:29;10.17;;;5.67;;
19396;SDS011;9834;48.076;11.878;2024-03-07T01:32:57;10.23;;;6.00;;
19396;SDS011;9834;48.076;11.878;2024-03-07T01:35:25;7.87;;;4.33;;
19396;SDS011;9834;48.076;11.878;2024-03-07T01:37:52;10.70;;;5.83;;
19396;SDS011;9834;48.076;11.878;2024-03-07T01:40:21;10.77;;;5.57;;
19396;SDS011;9834;48.076;11.878;2024-03-07T01:42:48;10.47;;;6.07;;
19396;SDS011;9834;48.076;11.878;2024-03-07T01:45:20;9.10;;;5.83;;
19396;SDS011;9834;48.076;11.878;2024-03-07T01:47:47;11.10;;;5.27;;
19396;SDS011;9834;48.076;11.878;2024-03-07T01:50:17;12.30;;;6.10;;
19396;SDS011;9834;48.076;11.878;2024-03-07T01:52:46;9.77;;;5.53;;
19396;SDS011;9834;48.076;11.878;2024-03-07T01:55:16;11.20;;;6.00;;
19396;SDS011;9834;48.076;11.878;2024-03-07T01:57:55;10.67;;;6.07;;
19396;SDS011;9834;48.076;11.878;2024-03-07T02:00:27;11.73;;;6.23;;
19396;SDS011;9834;48.076;11.878;2024-03-07T02:03:04;10.53;;;6.37;;
19396;SDS011;9834;48.076;11.878;2024-03-07T02:05:33;6.97;;;5.13;;
19396;SDS011;9834;48.076;11.878;2024-03-07T02:08:01;10.87;;;6.27;;
19396;SDS011;9834;48.076;11.878;2024-03-07T02:10:28;14.20;;;6.27;;
19396;SDS011;9834;48.076;11.878;2024-03-07T02:12:57;10.47;;;6.10;;
19396;SDS011;9834;48.076;11.878;2024-03-07T02:15:27;11.30;;;6.30;;
19396;SDS011;9834;48.076;11.878;2024-03-07T02:18:09;12.60;;;5.60;;
19396;SDS011;9834;48.076;11.878;2024-03-07T02:20:44;13.53;;;8.20;;
19396;SDS011;9834;48.076;11.878;2024-03-07T02:23:11;13.70;;;6.33;;
19396;SDS011;9834;48.076;11.878;2024-03-07T02:25:42;10.13;;;6.07;;
19396;SDS011;9834;48.076;11.878;2024-03-07T02:28:09;10.27;;;6.07;;
19396;SDS011;9834;48.076;11.878;2024-03-07T02:30:36;10.60;;;6.57;;
19396;SDS011;9834;48.076;11.878;2024-03-07T02:33:07;14.37;;;7.93;;
19396;SDS011;9834;48.076;11.878;2024-03-07T02:35:38;12.00;;;7.43;;
19396;SDS011;9834;48.076;11.878;2024-03-07T02:38:09;13.27;;;6.57;;
19396;SDS011;9834;48.076;11.878;2024-03-07T02:40:42;12.23;;;7.53;;
19396;SDS011;9834;48.076;11.878;2024-03-07T02:43:11;14.97;;;8.23;;
19396;SDS011;9834;48.076;11.878;2024-03-07T02:45:38;13.40;;;6.67;;
19396;SDS011;9834;48.076;11.878;2024-03-07T02:48:09;14.27;;;7.13;;
19396;SDS011;9834;48.076;11.878;2024-03-07T02:50:40;10.47;;;6.33;;
19396;SDS011;9834;48.076;11.878;2024-03-07T02:53:11;13.10;;;7.00;;
19396;SDS011;9834;48.076;11.878;2024-03-07T02:55:38;12.43;;;6.43;;
19396;SDS011;9834;48.076;11.878;2024-03-07T02:58:09;13.57;;;6.77;;
19396;SDS011;9834;48.076;11.878;2024-03-07T03:00:36;12.83;;;6.93;;
19396;SDS011;9834;48.076;11.878;2024-03-07T03:03:07;12.60;;;6.53;;
19396;SDS011;9834;48.076;11.878;2024-03-07T03:05:39;12.93;;;7.37;;
19396;SDS011;9834;48.076;11.878;2024-03-07T03:08:07;10.43;;;6.70;;
19396;SDS011;9834;48.076;11.878;2024-03-07T03:10:40;14.07;;;6.83;;
19396;SDS011;9834;48.076;11.878;2024-03-07T03:13:09;13.27;;;7.70;;
19396;SDS011;9834;48.076;11.878;2024-03-07T03:15:38;13.53;;;7.53;;
19396;SDS011;9834;48.076;11.878;2024-03-07T03:18:05;13.50;;;7.77;;
19396;SDS011;9834;48.076;11.878;2024-03-07T03:20:34;12.67;;;7.73;;
19396;SDS011;9834;48.076;11.878;2024-03-07T03:23:04;20.13;;;7.57;;
19396;SDS011;9834;48.076;11.878;2024-03-07T03:25:37;18.63;;;8.57;;
19396;SDS011;9834;48.076;11.878;2024-03-07T03:28:08;13.23;;;7.47;;
19396;SDS011;9834;48.076;11.878;2024-03-07T03:30:37;14.57;;;6.73;;
19396;SDS011;9834;48.076;11.878;2024-03-07T03:33:06;15.97;;;8.10;;
19396;SDS011;9834;48.076;11.878;2024-03-07T03:35:36;22.53;;;9.47;;
19396;SDS011;9834;48.076;11.878;2024-03-07T03:38:07;15.60;;;8.10;;
19396;SDS011;9834;48.076;11.878;2024-03-07T03:40:38;13.93;;;8.00;;
19396;SDS011;9834;48.076;11.878;2024-03-07T03:43:09;17.43;;;8.87;;
19396;SDS011;9834;48.076;11.878;2024-03-07T03:45:37;17.00;;;7.80;;
19396;SDS011;9834;48.076;11.878;2024-03-07T03:48:04;15.50;;;7.60;;
19396;SDS011;9834;48.076;11.878;2024-03-07T03:50:32;15.20;;;8.83;;
19396;SDS011;9834;48.076;11.878;2024-03-07T03:53:02;15.37;;;6.97;;
19396;SDS011;9834;48.076;11.878;2024-03-07T03:55:30;16.90;;;8.50;;
19396;SDS011;9834;48.076;11.878;2024-03-07T03:58:03;12.00;;;7.07;;
19396;SDS011;9834;48.076;11.878;2024-03-07T04:00:32;16.40;;;8.47;;
19396;SDS011;9834;48.076;11.878;2024-03-07T04:03:00;15.40;;;7.57;;
19396;SDS011;9834;48.076;11.878;2024-03-07T04:05:29;18.03;;;8.27;;
19396;SDS011;9834;48.076;11.878;2024-03-07T04:07:59;26.90;;;10.90;;
19396;SDS011;9834;48.076;11.878;2024-03-07T04:10:28;16.33;;;8.47;;
19396;SDS011;9834;48.076;11.878;2024-03-07T04:12:55;19.57;;;10.07;;
19396;SDS011;9834;48.076;11.878;2024-03-07T04:15:27;19.63;;;9.67;;
19396;SDS011;9834;48.076;11.878;2024-03-07T04:17:58;17.53;;;9.83;;
19396;SDS011;9834;48.076;11.878;2024-03-07T04:20:27;22.07;;;9.90;;
19396;SDS011;9834;48.076;11.878;2024-03-07T04:23:02;21.27;;;9.90;;
19396;SDS011;9834;48.076;11.878;2024-03-07T04:25:30;24.53;;;10.03;;
19396;SDS011;9834;48.076;11.878;2024-03-07T04:28:03;22.83;;;9.10;;
19396;SDS011;9834;48.076;11.878;2024-03-07T04:30:31;23.80;;;10.07;;
19396;SDS011;9834;48.076;11.878;2024-03-07T04:33:02;26.90;;;9.77;;
19396;SDS011;9834;48.076;11.878;2024-03-07T04:35:35;21.00;;;10.90;;
19396;SDS011;9834;48.076;11.878;2024-03-07T04:38:02;22.97;;;9.90;;
19396;SDS011;9834;48.076;11.878;2024-03-07T04:40:34;25.00;;;10.77;;
19396;SDS011;9834;48.076;11.878;2024-03-07T04:43:04;21.87;;;10.03;;
19396;SDS011;9834;48.076;11.878;2024-03-07T04:45:35;22.23;;;10.23;;
19396;SDS011;9834;48.076;11.878;2024-03-07T04:48:07;20.77;;;9.17;;
19396;SDS011;9834;48.076;11.878;2024-03-07T04:50:36;24.40;;;10.23;;
19396;SDS011;9834;48.076;11.878;2024-03-07T04:53:06;22.23;;;11.37;;
19396;SDS011;9834;48.076;11.878;2024-03-07T04:55:34;22.03;;;9.77;;
19396;SDS011;9834;48.076;11.878;2024-03-07T04:58:01;22.97;;;11.00;;
19396;SDS011;9834;48.076;11.878;2024-03-07T05:00:29;19.67;;;10.17;;
19396;SDS011;9834;48.076;11.878;2024-03-07T05:03:01;20.30;;;10.07;;
19396;SDS011;9834;48.076;11.878;2024-03-07T05:05:31;34.23;;;12.70;;
19396;SDS011;9834;48.076;11.878;2024-03-07T05:08:05;30.27;;;12.80;;
19396;SDS011;9834;48.076;11.878;2024-03-07T05:10:37;27.23;;;11.13;;
19396;SDS011;9834;48.076;11.878;2024-03-07T05:13:06;21.77;;;10.10;;
19396;SDS011;9834;48.076;11.878;2024-03-07T05:15:33;23.40;;;10.73;;
19396;SDS011;9834;48.076;11.878;2024-03-07T05:18:08;21.37;;;10.87;;
19396;SDS011;9834;48.076;11.878;2024-03-07T05:20:38;22.17;;;9.70;;
19396;SDS011;9834;48.076;11.878;2024-03-07T05:23:13;30.13;;;12.53;;
19396;SDS011;9834;48.076;11.878;2024-03-07T05:25:41;25.70;;;11.87;;
19396;SDS011;9834;48.076;11.878;2024-03-07T05:28:11;22.27;;;11.47;;
19396;SDS011;9834;48.076;11.878;2024-03-07T05:30:38;22.93;;;12.77;;
19396;SDS011;9834;48.076;11.878;2024-03-07T05:33:08;32.50;;;14.83;;
19396;SDS011;9834;48.076;11.878;2024-03-07T05:35:35;38.13;;;17.63;;
19396;SDS011;9834;48.076;11.878;2024-03-07T05:38:04;32.47;;;15.93;;
19396;SDS011;9834;48.076;11.878;2024-03-07T05:40:31;34.53;;;15.43;;
19396;SDS011;9834;48.076;11.878;2024-03-07T05:42:58;32.07;;;15.13;;
19396;SDS011;9834;48.076;11.878;2024-03-07T05:45:25;31.40;;;16.67;;
19396;SDS011;9834;48.076;11.878;2024-03-07T05:47:52;36.30;;;19.03;;
19396;SDS011;9834;48.076;11.878;2024-03-07T05:50:26;35.37;;;17.80;;
19396;SDS011;9834;48.076;11.878;2024-03-07T05:52:54;32.63;;;17.87;;
19396;SDS011;9834;48.076;11.878;2024-03-07T05:55:22;39.57;;;20.03;;
19396;SDS011;9834;48.076;11.878;2024-03-07T05:57:49;38.13;;;18.27;;
19396;SDS011;9834;48.076;11.878;2024-03-07T06:00:17;35.50;;;18.27;;
19396;SDS011;9834;48.076;11.878;2024-03-07T06:02:52;37.93;;;18.87;;
19396;SDS011;9834;48.076;11.878;2024-03-07T06:05:19;35.40;;;17.90;;
19396;SDS011;9834;48.076;11.878;2024-03-07T06:07:49;33.43;;;19.47;;
19396;SDS011;9834;48.076;11.878;2024-03-07T06:10:17;43.90;;;21.53;;
19396;SDS011;9834;48.076;11.878;2024-03-07T06:12:50;36.13;;;18.40;;
19396;SDS011;9834;48.076;11.878;2024-03-07T06:15:18;38.90;;;21.30;;
19396;SDS011;9834;48.076;11.878;2024-03-07T06:17:46;41.67;;;19.67;;
19396;SDS011;9834;48.076;11.878;2024-03-07T06:20:14;38.30;;;19.57;;
19396;SDS011;9834;48.076;11.878;2024-03-07T06:22:47;42.97;;;20.57;;
19396;SDS011;9834;48.076;11.878;2024-03-07T06:25:17;36.23;;;20.97;;
19396;SDS011;9834;48.076;11.878;2024-03-07T06:27:48;40.23;;;20.30;;
19396;SDS011;9834;48.076;11.878;2024-03-07T06:30:19;44.73;;;19.87;;
19396;SDS011;9834;48.076;11.878;2024-03-07T06:32:46;44.90;;;22.53;;
19396;SDS011;9834;48.076;11.878;2024-03-07T06:35:18;50.63;;;23.20;;
19396;SDS011;9834;48.076;11.878;2024-03-07T06:37:49;40.70;;;21.80;;
19396;SDS011;9834;48.076;11.878;2024-03-07T06:40:19;49.07;;;21.70;;
19396;SDS011;9834;48.076;11.878;2024-03-07T06:42:57;47.43;;;21.73;;
19396;SDS011;9834;48.076;11.878;2024-03-07T06:45:26;42.73;;;23.30;;
19396;SDS011;9834;48.076;11.878;2024-03-07T06:47:56;48.03;;;20.47;;
19396;SDS011;9834;48.076;11.878;2024-03-07T06:50:29;56.63;;;24.33;;
19396;SDS011;9834;48.076;11.878;2024-03-07T06:53:00;44.43;;;21.23;;
19396;SDS011;9834;48.076;11.878;2024-03-07T06:55:34;37.70;;;22.10;;
19396;SDS011;9834;48.076;11.878;2024-03-07T06:58:10;48.33;;;25.33;;
19396;SDS011;9834;48.076;11.878;2024-03-07T07:00:40;43.47;;;21.83;;
19396;SDS011;9834;48.076;11.878;2024-03-07T07:03:12;50.03;;;23.23;;
19396;SDS011;9834;48.076;11.878;2024-03-07T07:05:39;45.40;;;22.53;;
19396;SDS011;9834;48.076;11.878;2024-03-07T07:08:12;48.07;;;23.70;;
19396;SDS011;9834;48.076;11.878;2024-03-07T07:10:41;47.03;;;22.93;;
19396;SDS011;9834;48.076;11.878;2024-03-07T07:13:11;41.23;;;22.60;;
19396;SDS011;9834;48.076;11.878;2024-03-07T07:18:23;50.93;;;24.83;;
19396;SDS011;9834;48.076;11.878;2024-03-07T07:20:53;42.50;;;22.73;;
19396;SDS011;9834;48.076;11.878;2024-03-07T07:23:23;51.27;;;25.03;;
19396;SDS011;9834;48.076;11.878;2024-03-07T07:25:51;53.60;;;24.53;;
19396;SDS011;9834;48.076;11.878;2024-03-07T07:28:21;52.33;;;25.83;;
19396;SDS011;9834;48.076;11.878;2024-03-07T07:30:49;54.07;;;24.93;;
19396;SDS011;9834;48.076;11.878;2024-03-07T07:33:24;51.60;;;24.00;;
19396;SDS011;9834;48.076;11.878;2024-03-07T07:35:54;51.20;;;25.10;;
19396;SDS011;9834;48.076;11.878;2024-03-07T07:38:24;55.43;;;25.93;;
19396;SDS011;9834;48.076;11.878;2024-03-07T07:40:51;55.80;;;26.30;;
19396;SDS011;9834;48.076;11.878;2024-03-07T07:43:29;50.63;;;25.67;;
19396;SDS011;9834;48.076;11.878;2024-03-07T07:45:57;44.77;;;22.83;;
19396;SDS011;9834;48.076;11.878;2024-03-07T07:48:35;49.33;;;22.67;;
19396;SDS011;9834;48.076;11.878;2024-03-07T07:51:12;57.23;;;26.40;;
19396;SDS011;9834;48.076;11.878;2024-03-07T07:53:39;47.40;;;23.63;;
19396;SDS011;9834;48.076;11.878;2024-03-07T07:56:15;54.53;;;25.60;;
19396;SDS011;9834;48.076;11.878;2024-03-07T07:59:01;44.63;;;24.70;;
19396;SDS011;9834;48.076;11.878;2024-03-07T08:01:34;51.23;;;25.33;;
19396;SDS011;9834;48.076;11.878;2024-03-07T08:04:05;58.07;;;25.97;;
19396;SDS011;9834;48.076;11.878;2024-03-07T08:06:35;44.73;;;24.23;;
19396;SDS011;9834;48.076;11.878;2024-03-07T08:09:03;55.90;;;25.37;;
19396;SDS011;9834;48.076;11.878;2024-03-07T08:11:43;51.37;;;25.63;;
19396;SDS011;9834;48.076;11.878;2024-03-07T08:14:21;50.43;;;25.40;;
19396;SDS011;9834;48.076;11.878;2024-03-07T08:16:52;50.93;;;24.67;;
19396;SDS011;9834;48.076;11.878;2024-03-07T08:19:26;52.30;;;24.70;;
19396;SDS011;9834;48.076;11.878;2024-03-07T08:21:53;56.03;;;27.57;;
19396;SDS011;9834;48.076;11.878;2024-03-07T08:24:24;58.70;;;26.43;;
19396;SDS011;9834;48.076;11.878;2024-03-07T08:26:53;51.23;;;25.13;;
19396;SDS011;9834;48.076;11.878;2024-03-07T08:29:21;48.17;;;24.30;;
19396;SDS011;9834;48.076;11.878;2024-03-07T08:31:56;50.07;;;23.33;;
19396;SDS011;9834;48.076;11.878;2024-03-07T08:34:29;51.93;;;24.33;;
19396;SDS011;9834;48.076;11.878;2024-03-07T08:36:56;43.83;;;23.40;;
19396;SDS011;9834;48.076;11.878;2024-03-07T08:39:27;50.13;;;24.30;;
19396;SDS011;9834;48.076;11.878;2024-03-07T08:41:57;51.73;;;26.73;;
19396;SDS011;9834;48.076;11.878;2024-03-07T08:44:25;53.87;;;24.70;;
19396;SDS011;9834;48.076;11.878;2024-03-07T08:46:55;50.33;;;23.03;;
19396;SDS011;9834;48.076;11.878;2024-03-07T08:49:22;45.67;;;23.93;;
19396;SDS011;9834;48.076;11.878;2024-03-07T08:51:58;48.43;;;24.40;;
19396;SDS011;9834;48.076;11.878;2024-03-07T08:54:28;45.40;;;22.50;;
19396;SDS011;9834;48.076;11.878;2024-03-07T08:57:02;48.57;;;24.73;;
19396;SDS011;9834;48.076;11.878;2024-03-07T08:59:32;44.43;;;23.10;;
19396;SDS011;9834;48.076;11.878;2024-03-07T09:02:04;37.67;;;21.67;;
19396;SDS011;9834;48.076;11.878;2024-03-07T09:04:34;44.00;;;22.67;;
19396;SDS011;9834;48.076;11.878;2024-03-07T09:07:04;50.43;;;23.47;;
19396;SDS011;9834;48.076;11.878;2024-03-07T09:09:31;36.57;;;21.47;;
19396;SDS011;9834;48.076;11.878;2024-03-07T09:11:59;45.53;;;20.83;;
19396;SDS011;9834;48.076;11.878;2024-03-07T09:14:28;38.43;;;21.20;;
19396;SDS011;9834;48.076;11.878;2024-03-07T09:17:05;35.93;;;20.53;;
19396;SDS011;9834;48.076;11.878;2024-03-07T09:19:38;39.93;;;21.57;;
19396;SDS011;9834;48.076;11.878;2024-03-07T09:22:12;36.23;;;20.73;;
19396;SDS011;9834;48.076;11.878;2024-03-07T09:24:53;38.07;;;20.20;;
19396;SDS011;9834;48.076;11.878;2024-03-07T09:27:20;40.87;;;18.70;;
19396;SDS011;9834;48.076;11.878;2024-03-07T09:29:54;38.90;;;20.23;;
19396;SDS011;9834;48.076;11.878;2024-03-07T09:32:26;39.10;;;19.87;;
19396;SDS011;9834;48.076;11.878;2024-03-07T09:34:58;39.37;;;20.27;;
19396;SDS011;9834;48.076;11.878;2024-03-07T09:37:29;37.80;;;19.73;;
19396;SDS011;9834;48.076;11.878;2024-03-07T09:39:57;36.43;;;18.93;;
19396;SDS011;9834;48.076;11.878;2024-03-07T09:42:27;39.30;;;20.77;;
19396;SDS011;9834;48.076;11.878;2024-03-07T09:45:05;31.13;;;17.93;;
19396;SDS011;9834;48.076;11.878;2024-03-07T09:47:34;34.83;;;18.07;;
19396;SDS011;9834;48.076;11.878;2024-03-07T09:50:01;29.77;;;18.60;;
19396;SDS011;9834;48.076;11.878;2024-03-07T09:52:33;33.63;;;17.83;;
19396;SDS011;9834;48.076;11.878;2024-03-07T09:55:01;35.20;;;19.37;;
19396;SDS011;9834;48.076;11.878;2024-03-07T09:57:36;30.37;;;17.90;;
19396;SDS011;9834;48.076;11.878;2024-03-07T10:00:07;36.53;;;16.50;;
19396;SDS011;9834;48.076;11.878;2024-03-07T10:02:48;26.90;;;15.10;;
19396;SDS011;9834;48.076;11.878;2024-03-07T10:05:20;32.67;;;16.90;;
19396;SDS011;9834;48.076;11.878;2024-03-07T10:07:56;33.57;;;18.10;;
19396;SDS011;9834;48.076;11.878;2024-03-07T10:10:24;29.53;;;16.93;;
19396;SDS011;9834;48.076;11.878;2024-03-07T10:12:51;33.77;;;17.00;;
19396;SDS011;9834;48.076;11.878;2024-03-07T10:15:21;37.60;;;17.50;;
19396;SDS011;9834;48.076;11.878;2024-03-07T10:17:56;29.07;;;16.30;;
19396;SDS011;9834;48.076;11.878;2024-03-07T10:20:26;32.30;;;16.57;;
19396;SDS011;9834;48.076;11.878;2024-03-07T10:22:59;23.03;;;14.13;;
19396;SDS011;9834;48.076;11.878;2024-03-07T10:25:27;28.00;;;15.23;;
19396;SDS011;9834;48.076;11.878;2024-03-07T10:27:57;32.03;;;16.17;;
19396;SDS011;9834;48.076;11.878;2024-03-07T10:30:28;24.90;;;13.83;;
19396;SDS011;9834;48.076;11.878;2024-03-07T10:32:56;24.93;;;15.17;;
19396;SDS011;9834;48.076;11.878;2024-03-07T10:35:27;29.47;;;15.03;;
19396;SDS011;9834;48.076;11.878;2024-03-07T10:38:08;34.17;;;15.87;;
19396;SDS011;9834;48.076;11.878;2024-03-07T10:40:38;26.87;;;14.03;;
19396;SDS011;9834;48.076;11.878;2024-03-07T10:43:10;28.10;;;15.73;;
19396;SDS011;9834;48.076;11.878;2024-03-07T10:45:47;25.57;;;14.27;;
19396;SDS011;9834;48.076;11.878;2024-03-07T10:48:18;25.67;;;12.90;;
19396;SDS011;9834;48.076;11.878;2024-03-07T10:50:51;26.87;;;14.27;;
19396;SDS011;9834;48.076;11.878;2024-03-07T10:53:31;26.30;;;13.70;;
19396;SDS011;9834;48.076;11.878;2024-03-07T10:56:11;22.57;;;14.40;;
19396;SDS011;9834;48.076;11.878;2024-03-07T10:58:55;24.93;;;13.20;;
19396;SDS011;9834;48.076;11.878;2024-03-07T11:01:31;24.53;;;14.80;;
19396;SDS011;9834;48.076;11.878;2024-03-07T11:04:01;22.47;;;13.30;;
19396;SDS011;9834;48.076;11.878;2024-03-07T11:06:32;25.77;;;14.20;;
19396;SDS011;9834;48.076;11.878;2024-03-07T11:09:03;22.97;;;13.10;;
19396;SDS011;9834;48.076;11.878;2024-03-07T11:11:39;24.80;;;14.20;;
19396;SDS011;9834;48.076;11.878;2024-03-07T11:14:11;28.10;;;14.07;;
19396;SDS011;9834;48.076;11.878;2024-03-07T11:16:47;23.77;;;14.33;;
19396;SDS011;9834;48.076;11.878;2024-03-07T11:19:18;23.20;;;13.13;;
19396;SDS011;9834;48.076;11.878;2024-03-07T11:22:00;26.23;;;13.87;;
19396;SDS011;9834;48.076;11.878;2024-03-07T11:24:28;20.33;;;14.13;;
19396;SDS011;9834;48.076;11.878;2024-03-07T11:27:02;26.17;;;13.50;;
19396;SDS011;9834;48.076;11.878;2024-03-07T11:32:36;21.70;;;12.80;;
19396;SDS011;9834;48.076;11.878;2024-03-07T11:35:12;18.37;;;12.27;;
19396;SDS011;9834;48.076;11.878;2024-03-07T11:37:41;21.83;;;13.30;;
19396;SDS011;9834;48.076;11.878;2024-03-07T11:43:12;21.17;;;11.70;;
19396;SDS011;9834;48.076;11.878;2024-03-07T11:45:40;22.00;;;12.90;;
19396;SDS011;9834;48.076;11.878;2024-03-07T11:48:13;23.97;;;13.87;;
19396;SDS011;9834;48.076;11.878;2024-03-07T11:50:50;20.47;;;12.13;;
19396;SDS011;9834;48.076;11.878;2024-03-07T11:53:20;21.90;;;13.57;;
19396;SDS011;9834;48.076;11.878;2024-03-07T11:55:53;22.07;;;13.57;;
19396;SDS011;9834;48.076;11.878;2024-03-07T11:58:24;27.57;;;14.47;;
19396;SDS011;9834;48.076;11.878;2024-03-07T12:00:57;27.33;;;13.43;;
19396;SDS011;9834;48.076;11.878;2024-03-07T12:03:39;22.87;;;13.10;;
19396;SDS011;9834;48.076;11.878;2024-03-07T12:06:08;29.30;;;14.87;;
19396;SDS011;9834;48.076;11.878;2024-03-07T12:08:51;24.93;;;13.53;;
19396;SDS011;9834;48.076;11.878;2024-03-07T12:11:18;23.00;;;12.70;;
19396;SDS011;9834;48.076;11.878;2024-03-07T12:13:46;23.17;;;13.37;;
19396;SDS011;9834;48.076;11.878;2024-03-07T12:16:20;20.97;;;13.13;;
19396;SDS011;9834;48.076;11.878;2024-03-07T12:18:52;21.70;;;12.87;;
19396;SDS011;9834;48.076;11.878;2024-03-07T12:21:20;20.93;;;12.83;;
19396;SDS011;9834;48.076;11.878;2024-03-07T12:23:47;22.80;;;13.77;;
19396;SDS011;9834;48.076;11.878;2024-03-07T12:26:35;21.13;;;13.83;;
19396;SDS011;9834;48.076;11.878;2024-03-07T12:29:17;24.70;;;14.13;;
19396;SDS011;9834;48.076;11.878;2024-03-07T12:31:48;20.57;;;13.50;;
19396;SDS011;9834;48.076;11.878;2024-03-07T12:34:35;23.40;;;14.87;;
19396;SDS011;9834;48.076;11.878;2024-03-07T12:37:18;27.53;;;13.50;;
19396;SDS011;9834;48.076;11.878;2024-03-07T12:39:52;23.13;;;13.73;;
19396;SDS011;9834;48.076;11.878;2024-03-07T12:42:34;20.80;;;13.30;;
19396;SDS011;9834;48.076;11.878;2024-03-07T12:45:05;30.57;;;15.43;;
19396;SDS011;9834;48.076;11.878;2024-03-07T12:47:46;19.50;;;12.30;;
19396;SDS011;9834;48.076;11.878;2024-03-07T12:50:20;21.27;;;13.07;;
19396;SDS011;9834;48.076;11.878;2024-03-07T12:52:48;23.07;;;12.77;;
19396;SDS011;9834;48.076;11.878;2024-03-07T12:55:17;17.80;;;10.83;;
19396;SDS011;9834;48.076;11.878;2024-03-07T12:57:47;20.60;;;11.97;;
19396;SDS011;9834;48.076;11.878;2024-03-07T13:00:15;23.80;;;12.40;;
19396;SDS011;9834;48.076;11.878;2024-03-07T13:02:46;23.97;;;13.03;;
19396;SDS011;9834;48.076;11.878;2024-03-07T13:05:17;23.40;;;12.60;;
19396;SDS011;9834;48.076;11.878;2024-03-07T13:07:51;21.43;;;12.13;;
19396;SDS011;9834;48.076;11.878;2024-03-07T13:10:22;21.63;;;12.40;;
19396;SDS011;9834;48.076;11.878;2024-03-07T13:12:49;21.33;;;13.00;;
19396;SDS011;9834;48.076;11.878;2024-03-07T13:15:17;24.57;;;13.00;;
19396;SDS011;9834;48.076;11.878;2024-03-07T13:17:52;19.67;;;12.33;;
19396;SDS011;9834;48.076;11.878;2024-03-07T13:20:29;22.00;;;11.60;;
19396;SDS011;9834;48.076;11.878;2024-03-07T13:22:58;22.50;;;12.30;;
19396;SDS011;9834;48.076;11.878;2024-03-07T13:25:30;37.80;;;12.97;;
19396;SDS011;9834;48.076;11.878;2024-03-07T13:28:01;17.70;;;11.70;;
19396;SDS011;9834;48.076;11.878;2024-03-07T13:30:33;23.10;;;12.93;;
19396;SDS011;9834;48.076;11.878;2024-03-07T13:33:04;20.17;;;12.23;;
19396;SDS011;9834;48.076;11.878;2024-03-07T13:35:37;23.73;;;12.97;;
19396;SDS011;9834;48.076;11.878;2024-03-07T13:38:14;22.83;;;12.80;;
19396;SDS011;9834;48.076;11.878;2024-03-07T13:40:42;22.60;;;13.70;;
19396;SDS011;9834;48.076;11.878;2024-03-07T13:43:12;22.83;;;13.33;;
19396;SDS011;9834;48.076;11.878;2024-03-07T13:45:40;21.47;;;12.47;;
19396;SDS011;9834;48.076;11.878;2024-03-07T13:48:09;23.87;;;14.00;;
19396;SDS011;9834;48.076;11.878;2024-03-07T13:50:41;21.00;;;12.60;;
19396;SDS011;9834;48.076;11.878;2024-03-07T13:53:12;25.87;;;13.77;;
19396;SDS011;9834;48.076;11.878;2024-03-07T13:55:51;27.63;;;13.73;;
19396;SDS011;9834;48.076;11.878;2024-03-07T13:58:36;21.73;;;13.00;;
19396;SDS011;9834;48.076;11.878;2024-03-07T14:01:20;22.10;;;12.83;;
19396;SDS011;9834;48.076;11.878;2024-03-07T14:07:04;25.47;;;12.67;;
19396;SDS011;9834;48.076;11.878;2024-03-07T14:13:27;19.73;;;12.27;;
19396;SDS011;9834;48.076;11.878;2024-03-07T14:22:57;28.27;;;12.80;;
19396;SDS011;9834;48.076;11.878;2024-03-07T14:25:50;27.63;;;12.57;;
19396;SDS011;9834;48.076;11.878;2024-03-07T14:29:05;23.03;;;12.77;;
19396;SDS011;9834;48.076;11.878;2024-03-07T14:31:42;20.10;;;11.97;;
19396;SDS011;9834;48.076;11.878;2024-03-07T14:34:16;20.10;;;10.90;;
19396;SDS011;9834;48.076;11.878;2024-03-07T14:36:57;18.77;;;11.73;;
19396;SDS011;9834;48.076;11.878;2024-03-07T14:39:32;23.07;;;12.70;;
19396;SDS011;9834;48.076;11.878;2024-03-07T14:42:07;19.57;;;10.80;;
19396;SDS011;9834;48.076;11.878;2024-03-07T14:44:40;17.73;;;10.97;;
19396;SDS011;9834;48.076;11.878;2024-03-07T14:47:18;20.03;;;10.80;;
19396;SDS011;9834;48.076;11.878;2024-03-07T14:49:49;20.47;;;10.90;;
19396;SDS011;9834;48.076;11.878;2024-03-07T14:52:16;15.67;;;10.00;;
19396;SDS011;9834;48.076;11.878;2024-03-07T14:54:44;16.63;;;11.50;;
19396;SDS011;9834;48.076;11.878;2024-03-07T14:57:14;15.63;;;9.80;;
19396;SDS011;9834;48.076;11.878;2024-03-07T14:59:43;15.87;;;9.10;;
19396;SDS011;9834;48.076;11.878;2024-03-07T15:02:11;18.47;;;9.03;;
19396;SDS011;9834;48.076;11.878;2024-03-07T15:04:48;14.47;;;7.93;;
19396;SDS011;9834;48.076;11.878;2024-03-07T15:07:19;15.50;;;8.67;;
19396;SDS011;9834;48.076;11.878;2024-03-07T15:09:48;13.07;;;8.40;;
19396;SDS011;9834;48.076;11.878;2024-03-07T15:12:21;16.13;;;9.00;;
19396;SDS011;9834;48.076;11.878;2024-03-07T15:14:53;16.37;;;9.47;;